Etusivu
METAR-TAF:

METAR-TAF

Lentoasemat :

Pointe-Noire, Kongo

Leveyspiiri: 04-49S, Pituuspiiri: 011-54E, korkeus merenpinnasta: 17 m

Tämänhetkinen sää

Tämä raportti tehtiin 50 minuuttia sitten, kello 00.00 UTC
Tuuli 4 kn etelästä/lounaasta
Lämpötila 27°C
Kosteus 94%
Ilmanpaine 1010 hPa
Näkyvyys: 8000 m
Muutamia pilviä 1000 ft:n korkeudessa
Hajanaisia pilviä 2300 ft:n korkeudessa

METAR: FCPP 300000Z 20004KT 8000 FEW010 SCT023 27/26 Q1010 NOSIG

Aika: 01:50 (00:50 UTC)

Sääennuste

Tämä raportti tehtiin 1 tunti ja 50 minuuttia sitten, kello 23.00 UTC
Ennuste voimassa 30. päivästä klo 00 UTC - 30. päivään klo 24 UTC
Tuuli 6 kn etelästä
Näkyvyys: 7000 m
Hajanaisia pilviä 1300 ft:n korkeudessa
Todennäköisyys 30%
30. päivästä klo 15 UTC - 30. päivään klo 19 UTC
Hajanaisia pilviä 1500 ft:n korkeudessa
Muutamia pilviä 3000 ft:n korkeudessa, Cumulonimbus.

TAF: FCPP 292300Z 3000/3024 18006KT 7000 SCT013 PROB30 3015/3019 SCT015 FEW030CB

Säähavainnot ja -ennusteet yli 4000 lentoasemalta (METAR- ja TAF-raportit).

Käytössä olevat sääasemat on merkitty karttaan keltaisilla ja punaisilla pisteillä.

Aseta hiiri pisteen päälle nähdäksesi sääaseman nimen.

Klikkaa sitten nähdäksesi säähavainnot ja -ennusteet.

Kartan vaihtaminen: klikkaa mustalla rastilla varustettuja vihreitä pisteitä, niin voit zoomata sisään; viivalla varustettua vihreää pistettä, niin voit zoomata ulos tai vihreitä nuolia, niin pääset viereisille kartoille.


METAR-TAF: